Hauptseite
METAR-TAF:

METAR-TAF

Flughäfen :

Fliegerhorst Schleswig

Schleswig-Jagel, Deutschland

Breite: 54-28N, Länge: 009-31E, Höhe: 22 m

Beobachtung

Neuester Wetterbericht von vor 14 Minuten, um 13:20 UTC
Wind 15 kt aus West/Südwest
Temperatur 5°C
Luftfeuchtigkeit 93%
Luftdruck 1018 hPa
Sichtweite: 1800 m

METAR: ETNS 241320Z AUTO 25015KT 1800 // ////// 05/04 Q1018 ///

Zeit: 14:34 (13:34 UTC)

Prognose

Neuester Wetterbericht von vor 2 Stunden und 29 Minuten, um 11:05 UTC
Gültige Prognose vom 24 um 11 UTC bis 24 um 18 UTC
Wind 12 kt aus Südwest
Sichtweite: 2000 m
Durchbrochene Bewölkung in der Höhe von 200 ft
Sprühregen leicht

TAF: ETNS 241105Z 2411/2418 23012KT 2000 -DZ BKN002 CANCEL BY ETGL

Wetterbeobachtungen und Prognosen von mehr als 4000 Flughäfen (METAR und TAF Bericht).

Die verfügbaren Stationen werden durch gelbe und rote Markierungen auf der Karte dargestellt.

Führen Sie die Maus auf sie, um den Namen der Station zu sehen.

Darauf klicken, um die Beobachtung von Wetterbeobachtungen und Prognosen zu sehen.

Um die Karte zu ändern : klicken Sie auf den grünen Tasten mit einem schwarzen Kreuz Zum Vergrößern, auf den grünen Button mit einem Gedankenstrich zu verkleinern, oder auf die grünen Pfeile für benachbarte Karten.


METAR-TAF: